Terminal Aerodrome Forecast
Issued by NWS Binghamton, NY

Home | Current Version | Previous Version | Text Only | Print | Product List | Glossary On
Versions: 1 2 3 4 5 6 7 8 9 10 11 12 13 14 15 16 17 18 19 20
000
FTUS41 KBGM 231730
TAFSYR
TAF
KSYR 231730Z 2318/2418 14010KT 6SM -SHRA BR OVC025
     FM232000 15013KT 3SM -SHRA BR OVC020 WS020/20045KT
     FM232200 19009KT 5SM -DZ OVC015 WS020/23040KT
     FM240500 25007KT 5SM -DZ OVC009
     FM240800 27008KT P6SM OVC012
     FM241600 31005KT P6SM BKN035=

USA.gov is the U.S. government's official web portal to all federal, state and local government web resources and services.